Casstown, Ohio
Current Conditions -  °F | °C
As of 2:56 AM on Friday 19 Dec 2014 (Local Time) from KDAY Reporting Station
Overcast Overcast  
Wind Chill: 22°   Ceiling: 1500
Heat Index: 28°   Visibility: 7mi
Dew Point: 22°   Wind: 6mph
Humidity: 78%   Direction: 300°WNW
Pressure: 30.23"   Gusts: NA
Location:  40.05°N, 84.13°W
Report Text: KDAY 190756Z 30005KT 7SM OVC015 M02/M06 A3023 RMK AO2 SLP249 T10221056
Loading
Personal Weather Stations






























Interactive Weather Map New forecast layout! Learn more

10-Day Weather Forecast

Advertisements
Track Severe Weather on mobile